sensor_id;sensor_type;location;lat;lon;timestamp;temperature;humidity
78898;DHT22;70344;44.736;37.800;2023-08-07T00:00:27;27.81;69.36
78898;DHT22;70344;44.736;37.800;2023-08-07T00:01:29;27.80;69.28
78898;DHT22;70344;44.736;37.800;2023-08-07T00:02:33;27.78;69.21
78898;DHT22;70344;44.736;37.800;2023-08-07T00:03:35;27.78;69.49
78898;DHT22;70344;44.736;37.800;2023-08-07T00:04:40;27.76;69.68
78898;DHT22;70344;44.736;37.800;2023-08-07T00:05:46;27.73;69.32
78898;DHT22;70344;44.736;37.800;2023-08-07T00:06:50;27.74;69.77
78898;DHT22;70344;44.736;37.800;2023-08-07T00:07:52;27.71;69.77
78898;DHT22;70344;44.736;37.800;2023-08-07T00:08:54;27.73;70.00
78898;DHT22;70344;44.736;37.800;2023-08-07T00:09:56;27.71;70.00
78898;DHT22;70344;44.736;37.800;2023-08-07T00:11:08;27.68;69.58
78898;DHT22;70344;44.736;37.800;2023-08-07T00:12:10;27.70;69.35
78898;DHT22;70344;44.736;37.800;2023-08-07T00:13:12;27.68;69.64
78898;DHT22;70344;44.736;37.800;2023-08-07T00:14:14;27.65;69.56
78898;DHT22;70344;44.736;37.800;2023-08-07T00:15:18;27.65;70.15
78898;DHT22;70344;44.736;37.800;2023-08-07T00:16:20;27.63;70.11
78898;DHT22;70344;44.736;37.800;2023-08-07T00:17:29;27.63;70.55
78898;DHT22;70344;44.736;37.800;2023-08-07T00:18:31;27.61;70.33
78898;DHT22;70344;44.736;37.800;2023-08-07T00:19:33;27.60;70.65
78898;DHT22;70344;44.736;37.800;2023-08-07T00:20:35;27.63;70.21
78898;DHT22;70344;44.736;37.800;2023-08-07T00:21:37;27.58;70.43
78898;DHT22;70344;44.736;37.800;2023-08-07T00:22:39;27.61;70.24
78898;DHT22;70344;44.736;37.800;2023-08-07T00:23:49;27.58;70.82
78898;DHT22;70344;44.736;37.800;2023-08-07T00:24:57;27.57;71.05
78898;DHT22;70344;44.736;37.800;2023-08-07T00:25:59;27.56;71.00
78898;DHT22;70344;44.736;37.800;2023-08-07T00:27:01;27.54;70.59
78898;DHT22;70344;44.736;37.800;2023-08-07T00:28:04;27.56;70.94
78898;DHT22;70344;44.736;37.800;2023-08-07T00:29:06;27.56;70.76
78898;DHT22;70344;44.736;37.800;2023-08-07T00:30:09;27.54;71.01
78898;DHT22;70344;44.736;37.800;2023-08-07T00:31:13;27.53;70.70
78898;DHT22;70344;44.736;37.800;2023-08-07T00:32:18;27.53;70.35
78898;DHT22;70344;44.736;37.800;2023-08-07T00:33:21;27.51;69.77
78898;DHT22;70344;44.736;37.800;2023-08-07T00:34:23;27.51;69.60
78898;DHT22;70344;44.736;37.800;2023-08-07T00:35:25;27.50;69.87
78898;DHT22;70344;44.736;37.800;2023-08-07T00:36:27;27.47;69.43
78898;DHT22;70344;44.736;37.800;2023-08-07T00:37:39;27.49;69.71
78898;DHT22;70344;44.736;37.800;2023-08-07T00:38:40;27.49;69.43
78898;DHT22;70344;44.736;37.800;2023-08-07T00:39:42;27.50;69.66
78898;DHT22;70344;44.736;37.800;2023-08-07T00:40:48;27.51;69.59
78898;DHT22;70344;44.736;37.800;2023-08-07T00:41:50;27.51;69.34
78898;DHT22;70344;44.736;37.800;2023-08-07T00:42:55;27.50;69.02
78898;DHT22;70344;44.736;37.800;2023-08-07T00:44:00;27.53;68.71
78898;DHT22;70344;44.736;37.800;2023-08-07T00:45:03;27.51;68.58
78898;DHT22;70344;44.736;37.800;2023-08-07T00:46:05;27.51;69.12
78898;DHT22;70344;44.736;37.800;2023-08-07T00:47:07;27.53;68.75
78898;DHT22;70344;44.736;37.800;2023-08-07T00:48:10;27.50;68.55
78898;DHT22;70344;44.736;37.800;2023-08-07T00:49:13;27.50;68.81
78898;DHT22;70344;44.736;37.800;2023-08-07T00:50:20;27.49;68.56
78898;DHT22;70344;44.736;37.800;2023-08-07T00:51:23;27.47;68.76
78898;DHT22;70344;44.736;37.800;2023-08-07T00:52:25;27.50;69.02
78898;DHT22;70344;44.736;37.800;2023-08-07T00:53:28;27.49;68.72
78898;DHT22;70344;44.736;37.800;2023-08-07T00:54:37;27.49;69.13
78898;DHT22;70344;44.736;37.800;2023-08-07T00:55:41;27.49;69.66
78898;DHT22;70344;44.736;37.800;2023-08-07T00:56:46;27.46;68.84
78898;DHT22;70344;44.736;37.800;2023-08-07T00:57:49;27.45;69.12
78898;DHT22;70344;44.736;37.800;2023-08-07T00:58:55;27.46;68.96
78898;DHT22;70344;44.736;37.800;2023-08-07T01:00:02;27.45;69.22
78898;DHT22;70344;44.736;37.800;2023-08-07T01:01:07;27.43;69.02
78898;DHT22;70344;44.736;37.800;2023-08-07T01:02:27;27.43;69.66
78898;DHT22;70344;44.736;37.800;2023-08-07T01:03:32;27.42;69.63
78898;DHT22;70344;44.736;37.800;2023-08-07T01:04:38;27.43;70.03
78898;DHT22;70344;44.736;37.800;2023-08-07T01:05:43;27.39;70.32
78898;DHT22;70344;44.736;37.800;2023-08-07T01:06:46;27.33;70.71
78898;DHT22;70344;44.736;37.800;2023-08-07T01:07:47;27.35;70.51
78898;DHT22;70344;44.736;37.800;2023-08-07T01:08:50;27.33;70.56
78898;DHT22;70344;44.736;37.800;2023-08-07T01:09:56;27.33;70.04
78898;DHT22;70344;44.736;37.800;2023-08-07T01:13:08;27.30;70.19
78898;DHT22;70344;44.736;37.800;2023-08-07T01:14:49;27.33;70.63
78898;DHT22;70344;44.736;37.800;2023-08-07T01:15:52;27.32;70.48
78898;DHT22;70344;44.736;37.800;2023-08-07T01:17:16;27.28;70.74
78898;DHT22;70344;44.736;37.800;2023-08-07T01:18:18;27.29;70.84
78898;DHT22;70344;44.736;37.800;2023-08-07T01:19:25;27.28;71.72
78898;DHT22;70344;44.736;37.800;2023-08-07T01:20:30;27.22;71.33
78898;DHT22;70344;44.736;37.800;2023-08-07T01:21:34;27.25;71.34
78898;DHT22;70344;44.736;37.800;2023-08-07T01:22:36;27.25;71.98
78898;DHT22;70344;44.736;37.800;2023-08-07T01:23:38;27.25;71.51
78898;DHT22;70344;44.736;37.800;2023-08-07T01:24:45;27.23;71.48
78898;DHT22;70344;44.736;37.800;2023-08-07T01:25:48;27.22;71.30
78898;DHT22;70344;44.736;37.800;2023-08-07T01:26:51;27.22;71.35
78898;DHT22;70344;44.736;37.800;2023-08-07T01:28:00;27.22;72.57
78898;DHT22;70344;44.736;37.800;2023-08-07T01:29:12;27.21;72.03
78898;DHT22;70344;44.736;37.800;2023-08-07T01:30:32;27.21;72.09
78898;DHT22;70344;44.736;37.800;2023-08-07T01:31:39;27.21;71.92
78898;DHT22;70344;44.736;37.800;2023-08-07T01:34:22;27.21;71.85
78898;DHT22;70344;44.736;37.800;2023-08-07T01:35:31;27.22;72.36
78898;DHT22;70344;44.736;37.800;2023-08-07T01:36:35;27.18;72.93
78898;DHT22;70344;44.736;37.800;2023-08-07T01:37:41;27.19;72.47
78898;DHT22;70344;44.736;37.800;2023-08-07T01:38:43;27.16;72.90
78898;DHT22;70344;44.736;37.800;2023-08-07T01:39:47;27.16;72.33
78898;DHT22;70344;44.736;37.800;2023-08-07T01:40:50;27.18;72.59
78898;DHT22;70344;44.736;37.800;2023-08-07T01:41:55;27.16;72.35
78898;DHT22;70344;44.736;37.800;2023-08-07T01:42:57;27.16;71.88
78898;DHT22;70344;44.736;37.800;2023-08-07T01:44:19;27.21;72.20
78898;DHT22;70344;44.736;37.800;2023-08-07T01:45:28;27.21;71.89
78898;DHT22;70344;44.736;37.800;2023-08-07T01:46:53;27.21;71.84
78898;DHT22;70344;44.736;37.800;2023-08-07T01:47:57;27.21;71.78
78898;DHT22;70344;44.736;37.800;2023-08-07T01:49:01;27.21;71.98
78898;DHT22;70344;44.736;37.800;2023-08-07T01:50:03;27.21;71.39
78898;DHT22;70344;44.736;37.800;2023-08-07T01:51:05;27.19;71.64
78898;DHT22;70344;44.736;37.800;2023-08-07T01:52:08;27.19;71.28
78898;DHT22;70344;44.736;37.800;2023-08-07T01:53:10;27.19;71.10
78898;DHT22;70344;44.736;37.800;2023-08-07T01:54:19;27.18;71.00
78898;DHT22;70344;44.736;37.800;2023-08-07T01:55:24;27.21;71.32
78898;DHT22;70344;44.736;37.800;2023-08-07T01:56:28;27.19;71.41
78898;DHT22;70344;44.736;37.800;2023-08-07T01:57:30;27.19;71.51
78898;DHT22;70344;44.736;37.800;2023-08-07T01:58:32;27.18;71.34
78898;DHT22;70344;44.736;37.800;2023-08-07T01:59:37;27.19;72.00
78898;DHT22;70344;44.736;37.800;2023-08-07T02:00:38;27.18;71.43
78898;DHT22;70344;44.736;37.800;2023-08-07T02:01:46;27.18;71.48
78898;DHT22;70344;44.736;37.800;2023-08-07T02:02:48;27.18;71.40
78898;DHT22;70344;44.736;37.800;2023-08-07T02:03:50;27.16;71.92
78898;DHT22;70344;44.736;37.800;2023-08-07T02:04:52;27.16;71.91
78898;DHT22;70344;44.736;37.800;2023-08-07T02:05:55;27.18;72.47
78898;DHT22;70344;44.736;37.800;2023-08-07T02:07:02;27.15;71.78
78898;DHT22;70344;44.736;37.800;2023-08-07T02:08:06;27.15;72.05
78898;DHT22;70344;44.736;37.800;2023-08-07T02:09:08;27.12;72.17
78898;DHT22;70344;44.736;37.800;2023-08-07T02:10:10;27.13;71.77
78898;DHT22;70344;44.736;37.800;2023-08-07T02:11:14;27.13;71.91
78898;DHT22;70344;44.736;37.800;2023-08-07T02:12:16;27.16;71.65
78898;DHT22;70344;44.736;37.800;2023-08-07T02:13:21;27.28;71.88
78898;DHT22;70344;44.736;37.800;2023-08-07T02:14:26;27.38;71.92
78898;DHT22;70344;44.736;37.800;2023-08-07T02:15:28;27.50;71.36
78898;DHT22;70344;44.736;37.800;2023-08-07T02:16:30;27.63;70.70
78898;DHT22;70344;44.736;37.800;2023-08-07T02:17:34;27.73;70.57
78898;DHT22;70344;44.736;37.800;2023-08-07T02:18:44;27.85;70.18
78898;DHT22;70344;44.736;37.800;2023-08-07T02:19:50;27.90;70.12
78898;DHT22;70344;44.736;37.800;2023-08-07T02:20:57;27.88;69.69
78898;DHT22;70344;44.736;37.800;2023-08-07T02:22:03;27.85;69.68
78898;DHT22;70344;44.736;37.800;2023-08-07T02:23:08;27.81;69.63
78898;DHT22;70344;44.736;37.800;2023-08-07T02:24:09;27.76;70.10
78898;DHT22;70344;44.736;37.800;2023-08-07T02:25:14;27.73;70.87
78898;DHT22;70344;44.736;37.800;2023-08-07T02:26:16;27.64;70.44
78898;DHT22;70344;44.736;37.800;2023-08-07T02:27:18;27.61;70.60
78898;DHT22;70344;44.736;37.800;2023-08-07T02:28:19;27.58;71.37
78898;DHT22;70344;44.736;37.800;2023-08-07T02:29:21;27.57;71.08
78898;DHT22;70344;44.736;37.800;2023-08-07T02:30:23;27.53;71.10
78898;DHT22;70344;44.736;37.800;2023-08-07T02:31:26;27.50;71.05
78898;DHT22;70344;44.736;37.800;2023-08-07T02:32:31;27.50;71.11
78898;DHT22;70344;44.736;37.800;2023-08-07T02:33:38;27.47;71.25
78898;DHT22;70344;44.736;37.800;2023-08-07T02:34:45;27.47;71.28
78898;DHT22;70344;44.736;37.800;2023-08-07T02:35:47;27.45;71.27
78898;DHT22;70344;44.736;37.800;2023-08-07T02:36:49;27.46;71.69
78898;DHT22;70344;44.736;37.800;2023-08-07T02:37:53;27.45;71.99
78898;DHT22;70344;44.736;37.800;2023-08-07T02:38:58;27.42;71.43
78898;DHT22;70344;44.736;37.800;2023-08-07T02:40:00;27.40;72.00
78898;DHT22;70344;44.736;37.800;2023-08-07T02:41:09;27.36;72.26
78898;DHT22;70344;44.736;37.800;2023-08-07T02:42:20;27.32;72.23
78898;DHT22;70344;44.736;37.800;2023-08-07T02:43:22;27.33;71.73
78898;DHT22;70344;44.736;37.800;2023-08-07T02:44:30;27.29;72.83
78898;DHT22;70344;44.736;37.800;2023-08-07T02:45:34;27.32;72.65
78898;DHT22;70344;44.736;37.800;2023-08-07T02:46:45;27.30;72.83
78898;DHT22;70344;44.736;37.800;2023-08-07T02:47:46;27.30;72.71
78898;DHT22;70344;44.736;37.800;2023-08-07T02:48:48;27.29;72.52
78898;DHT22;70344;44.736;37.800;2023-08-07T02:49:56;27.29;72.75
78898;DHT22;70344;44.736;37.800;2023-08-07T02:51:05;27.29;73.07
78898;DHT22;70344;44.736;37.800;2023-08-07T02:52:14;27.26;72.83
78898;DHT22;70344;44.736;37.800;2023-08-07T02:53:17;27.28;73.07
78898;DHT22;70344;44.736;37.800;2023-08-07T02:54:19;27.28;73.22
78898;DHT22;70344;44.736;37.800;2023-08-07T02:55:21;27.28;73.28
78898;DHT22;70344;44.736;37.800;2023-08-07T02:56:22;27.28;73.19
78898;DHT22;70344;44.736;37.800;2023-08-07T02:57:25;27.26;73.24
78898;DHT22;70344;44.736;37.800;2023-08-07T02:58:32;27.28;73.06
78898;DHT22;70344;44.736;37.800;2023-08-07T02:59:37;27.28;73.48
78898;DHT22;70344;44.736;37.800;2023-08-07T03:00:41;27.28;73.53
78898;DHT22;70344;44.736;37.800;2023-08-07T03:01:45;27.29;73.37
78898;DHT22;70344;44.736;37.800;2023-08-07T03:02:47;27.30;73.15
78898;DHT22;70344;44.736;37.800;2023-08-07T03:03:50;27.29;73.91
78898;DHT22;70344;44.736;37.800;2023-08-07T03:04:54;27.29;74.02
78898;DHT22;70344;44.736;37.800;2023-08-07T03:05:59;27.28;73.55
78898;DHT22;70344;44.736;37.800;2023-08-07T03:07:01;27.29;73.77
78898;DHT22;70344;44.736;37.800;2023-08-07T03:08:03;27.26;73.60
78898;DHT22;70344;44.736;37.800;2023-08-07T03:09:07;27.29;73.43
78898;DHT22;70344;44.736;37.800;2023-08-07T03:10:11;27.28;73.72
78898;DHT22;70344;44.736;37.800;2023-08-07T03:11:13;27.30;73.60
78898;DHT22;70344;44.736;37.800;2023-08-07T03:12:15;27.29;73.88
78898;DHT22;70344;44.736;37.800;2023-08-07T03:13:17;27.30;73.54
78898;DHT22;70344;44.736;37.800;2023-08-07T03:14:19;27.32;73.37
78898;DHT22;70344;44.736;37.800;2023-08-07T03:15:24;27.33;73.41
78898;DHT22;70344;44.736;37.800;2023-08-07T03:16:28;27.32;74.12
78898;DHT22;70344;44.736;37.800;2023-08-07T03:17:30;27.33;73.34
78898;DHT22;70344;44.736;37.800;2023-08-07T03:18:33;27.36;73.45
78898;DHT22;70344;44.736;37.800;2023-08-07T03:19:37;27.38;74.31
78898;DHT22;70344;44.736;37.800;2023-08-07T03:20:41;27.32;73.70
78898;DHT22;70344;44.736;37.800;2023-08-07T03:21:44;27.35;73.74
78898;DHT22;70344;44.736;37.800;2023-08-07T03:22:46;27.35;73.38
78898;DHT22;70344;44.736;37.800;2023-08-07T03:23:52;27.40;73.65
78898;DHT22;70344;44.736;37.800;2023-08-07T03:24:54;27.38;73.73
78898;DHT22;70344;44.736;37.800;2023-08-07T03:26:04;27.40;73.33
78898;DHT22;70344;44.736;37.800;2023-08-07T03:27:07;27.43;73.25
78898;DHT22;70344;44.736;37.800;2023-08-07T03:28:12;27.42;73.75
78898;DHT22;70344;44.736;37.800;2023-08-07T03:29:14;27.43;74.12
78898;DHT22;70344;44.736;37.800;2023-08-07T03:30:19;27.42;73.51
78898;DHT22;70344;44.736;37.800;2023-08-07T03:31:24;27.46;73.71
78898;DHT22;70344;44.736;37.800;2023-08-07T03:32:37;27.42;73.39
78898;DHT22;70344;44.736;37.800;2023-08-07T03:33:42;27.43;73.53
78898;DHT22;70344;44.736;37.800;2023-08-07T03:34:47;27.45;73.87
78898;DHT22;70344;44.736;37.800;2023-08-07T03:35:50;27.46;73.67
78898;DHT22;70344;44.736;37.800;2023-08-07T03:36:52;27.45;73.92
78898;DHT22;70344;44.736;37.800;2023-08-07T03:37:58;27.45;74.11
78898;DHT22;70344;44.736;37.800;2023-08-07T03:39:02;27.46;74.11
78898;DHT22;70344;44.736;37.800;2023-08-07T03:40:07;27.45;73.50
78898;DHT22;70344;44.736;37.800;2023-08-07T03:41:14;27.45;73.69
78898;DHT22;70344;44.736;37.800;2023-08-07T03:42:20;27.47;73.81
78898;DHT22;70344;44.736;37.800;2023-08-07T03:43:22;27.49;74.06
78898;DHT22;70344;44.736;37.800;2023-08-07T03:44:34;27.50;73.86
78898;DHT22;70344;44.736;37.800;2023-08-07T03:45:39;27.50;73.95
78898;DHT22;70344;44.736;37.800;2023-08-07T03:46:43;27.50;73.96
78898;DHT22;70344;44.736;37.800;2023-08-07T03:47:47;27.53;73.95
78898;DHT22;70344;44.736;37.800;2023-08-07T03:48:50;27.56;74.08
78898;DHT22;70344;44.736;37.800;2023-08-07T03:49:53;27.56;73.91
78898;DHT22;70344;44.736;37.800;2023-08-07T03:51:02;27.54;74.03
78898;DHT22;70344;44.736;37.800;2023-08-07T03:52:06;27.60;73.97
78898;DHT22;70344;44.736;37.800;2023-08-07T03:53:08;27.61;73.95
78898;DHT22;70344;44.736;37.800;2023-08-07T03:54:16;27.63;74.13
78898;DHT22;70344;44.736;37.800;2023-08-07T03:55:20;27.64;74.07
78898;DHT22;70344;44.736;37.800;2023-08-07T03:56:25;27.67;73.51
78898;DHT22;70344;44.736;37.800;2023-08-07T03:57:29;27.68;73.34
78898;DHT22;70344;44.736;37.800;2023-08-07T03:58:32;27.73;73.25
78898;DHT22;70344;44.736;37.800;2023-08-07T03:59:42;27.76;72.77
78898;DHT22;70344;44.736;37.800;2023-08-07T04:00:44;27.76;72.54
78898;DHT22;70344;44.736;37.800;2023-08-07T04:01:46;27.77;72.61
78898;DHT22;70344;44.736;37.800;2023-08-07T04:02:50;27.78;72.65
78898;DHT22;70344;44.736;37.800;2023-08-07T04:03:57;27.84;72.71
78898;DHT22;70344;44.736;37.800;2023-08-07T04:04:58;27.85;72.40
78898;DHT22;70344;44.736;37.800;2023-08-07T04:06:03;27.84;72.14
78898;DHT22;70344;44.736;37.800;2023-08-07T04:07:11;27.85;72.00
78898;DHT22;70344;44.736;37.800;2023-08-07T04:08:21;27.87;71.25
78898;DHT22;70344;44.736;37.800;2023-08-07T04:09:26;27.90;70.89
78898;DHT22;70344;44.736;37.800;2023-08-07T04:10:28;27.88;71.35
78898;DHT22;70344;44.736;37.800;2023-08-07T04:11:33;27.94;70.95
78898;DHT22;70344;44.736;37.800;2023-08-07T04:12:34;27.94;69.38
78898;DHT22;70344;44.736;37.800;2023-08-07T04:13:41;27.97;69.26
78898;DHT22;70344;44.736;37.800;2023-08-07T04:14:46;27.99;68.84
78898;DHT22;70344;44.736;37.800;2023-08-07T04:15:50;27.98;68.97
78898;DHT22;70344;44.736;37.800;2023-08-07T04:16:52;28.02;69.15
78898;DHT22;70344;44.736;37.800;2023-08-07T04:17:56;28.05;69.35
78898;DHT22;70344;44.736;37.800;2023-08-07T04:18:58;28.09;68.94
78898;DHT22;70344;44.736;37.800;2023-08-07T04:20:04;28.12;69.33
78898;DHT22;70344;44.736;37.800;2023-08-07T04:21:09;28.16;68.78
78898;DHT22;70344;44.736;37.800;2023-08-07T04:22:10;28.19;69.06
78898;DHT22;70344;44.736;37.800;2023-08-07T04:23:15;28.23;68.43
78898;DHT22;70344;44.736;37.800;2023-08-07T04:24:25;28.23;68.77
78898;DHT22;70344;44.736;37.800;2023-08-07T04:25:26;28.26;68.89
78898;DHT22;70344;44.736;37.800;2023-08-07T04:26:31;28.26;69.11
78898;DHT22;70344;44.736;37.800;2023-08-07T04:27:35;28.27;68.20
78898;DHT22;70344;44.736;37.800;2023-08-07T04:28:40;28.29;68.28
78898;DHT22;70344;44.736;37.800;2023-08-07T04:29:42;28.32;68.55
78898;DHT22;70344;44.736;37.800;2023-08-07T04:30:51;28.36;68.93
78898;DHT22;70344;44.736;37.800;2023-08-07T04:31:56;28.39;69.07
78898;DHT22;70344;44.736;37.800;2023-08-07T04:33:00;28.42;68.63
78898;DHT22;70344;44.736;37.800;2023-08-07T04:34:02;28.46;68.08
78898;DHT22;70344;44.736;37.800;2023-08-07T04:35:10;28.50;68.30
78898;DHT22;70344;44.736;37.800;2023-08-07T04:36:12;28.50;67.99
78898;DHT22;70344;44.736;37.800;2023-08-07T04:37:13;28.59;68.05
78898;DHT22;70344;44.736;37.800;2023-08-07T04:38:19;28.60;67.79
78898;DHT22;70344;44.736;37.800;2023-08-07T04:39:24;28.63;67.75
78898;DHT22;70344;44.736;37.800;2023-08-07T04:40:30;28.65;67.54
78898;DHT22;70344;44.736;37.800;2023-08-07T04:41:37;28.71;67.09
78898;DHT22;70344;44.736;37.800;2023-08-07T04:42:42;28.71;67.73
78898;DHT22;70344;44.736;37.800;2023-08-07T04:43:44;28.75;67.45
78898;DHT22;70344;44.736;37.800;2023-08-07T04:44:48;28.78;66.61
78898;DHT22;70344;44.736;37.800;2023-08-07T04:45:54;28.78;67.36
78898;DHT22;70344;44.736;37.800;2023-08-07T04:46:56;28.79;68.17
78898;DHT22;70344;44.736;37.800;2023-08-07T04:48:00;28.82;67.63
78898;DHT22;70344;44.736;37.800;2023-08-07T04:49:02;28.81;66.90
78898;DHT22;70344;44.736;37.800;2023-08-07T04:50:04;28.81;66.11
78898;DHT22;70344;44.736;37.800;2023-08-07T04:51:06;28.79;66.05
78898;DHT22;70344;44.736;37.800;2023-08-07T04:52:08;28.84;66.29
78898;DHT22;70344;44.736;37.800;2023-08-07T04:53:12;28.88;66.44
78898;DHT22;70344;44.736;37.800;2023-08-07T04:54:19;28.94;66.64
78898;DHT22;70344;44.736;37.800;2023-08-07T04:55:24;28.98;67.29
78898;DHT22;70344;44.736;37.800;2023-08-07T04:56:29;29.02;66.87
78898;DHT22;70344;44.736;37.800;2023-08-07T04:57:33;29.03;66.99
78898;DHT22;70344;44.736;37.800;2023-08-07T04:58:37;29.08;67.18
78898;DHT22;70344;44.736;37.800;2023-08-07T04:59:39;29.10;66.43
78898;DHT22;70344;44.736;37.800;2023-08-07T05:00:43;29.19;66.70
78898;DHT22;70344;44.736;37.800;2023-08-07T05:01:47;29.19;67.13
78898;DHT22;70344;44.736;37.800;2023-08-07T05:02:49;29.23;67.21
78898;DHT22;70344;44.736;37.800;2023-08-07T05:03:51;29.30;67.49
78898;DHT22;70344;44.736;37.800;2023-08-07T05:04:53;29.29;67.12
78898;DHT22;70344;44.736;37.800;2023-08-07T05:06:07;29.36;66.49
78898;DHT22;70344;44.736;37.800;2023-08-07T05:07:11;29.37;67.43
78898;DHT22;70344;44.736;37.800;2023-08-07T05:08:17;29.38;66.94
78898;DHT22;70344;44.736;37.800;2023-08-07T05:09:21;29.43;66.49
78898;DHT22;70344;44.736;37.800;2023-08-07T05:10:31;29.46;66.52
78898;DHT22;70344;44.736;37.800;2023-08-07T05:11:33;29.49;66.42
78898;DHT22;70344;44.736;37.800;2023-08-07T05:12:35;29.50;66.03
78898;DHT22;70344;44.736;37.800;2023-08-07T05:13:37;29.54;64.67
78898;DHT22;70344;44.736;37.800;2023-08-07T05:14:39;29.55;63.04
78898;DHT22;70344;44.736;37.800;2023-08-07T05:15:47;29.57;63.01
78898;DHT22;70344;44.736;37.800;2023-08-07T05:16:49;29.62;63.31
78898;DHT22;70344;44.736;37.800;2023-08-07T05:17:51;29.65;62.24
78898;DHT22;70344;44.736;37.800;2023-08-07T05:18:57;29.61;63.85
78898;DHT22;70344;44.736;37.800;2023-08-07T05:20:04;29.65;63.97
78898;DHT22;70344;44.736;37.800;2023-08-07T05:21:09;29.62;64.34
78898;DHT22;70344;44.736;37.800;2023-08-07T05:22:21;29.62;63.58
78898;DHT22;70344;44.736;37.800;2023-08-07T05:23:26;29.61;64.11
78898;DHT22;70344;44.736;37.800;2023-08-07T05:24:30;29.65;64.66
78898;DHT22;70344;44.736;37.800;2023-08-07T05:25:42;29.71;63.75
78898;DHT22;70344;44.736;37.800;2023-08-07T05:26:50;29.72;64.45
78898;DHT22;70344;44.736;37.800;2023-08-07T05:28:01;29.79;63.44
78898;DHT22;70344;44.736;37.800;2023-08-07T05:29:16;29.85;62.91
78898;DHT22;70344;44.736;37.800;2023-08-07T05:30:27;29.88;62.68
78898;DHT22;70344;44.736;37.800;2023-08-07T05:31:29;29.85;62.87
78898;DHT22;70344;44.736;37.800;2023-08-07T05:32:40;29.86;63.19
78898;DHT22;70344;44.736;37.800;2023-08-07T05:33:49;29.88;62.82
78898;DHT22;70344;44.736;37.800;2023-08-07T05:34:50;29.90;62.38
78898;DHT22;70344;44.736;37.800;2023-08-07T05:35:55;29.89;62.38
78898;DHT22;70344;44.736;37.800;2023-08-07T05:36:56;29.90;62.42
78898;DHT22;70344;44.736;37.800;2023-08-07T05:37:58;29.89;62.86
78898;DHT22;70344;44.736;37.800;2023-08-07T05:39:00;29.90;62.86
78898;DHT22;70344;44.736;37.800;2023-08-07T05:40:08;29.90;62.52
78898;DHT22;70344;44.736;37.800;2023-08-07T05:41:16;29.90;63.30
78898;DHT22;70344;44.736;37.800;2023-08-07T05:42:23;29.93;63.31
78898;DHT22;70344;44.736;37.800;2023-08-07T05:43:28;29.96;63.63
78898;DHT22;70344;44.736;37.800;2023-08-07T05:44:32;29.96;62.89
78898;DHT22;70344;44.736;37.800;2023-08-07T05:45:39;29.92;63.25
78898;DHT22;70344;44.736;37.800;2023-08-07T05:46:41;29.90;63.13
78898;DHT22;70344;44.736;37.800;2023-08-07T05:47:51;29.92;63.45
78898;DHT22;70344;44.736;37.800;2023-08-07T05:48:57;29.92;63.43
78898;DHT22;70344;44.736;37.800;2023-08-07T05:50:01;29.95;63.16
78898;DHT22;70344;44.736;37.800;2023-08-07T05:51:09;29.98;63.58
78898;DHT22;70344;44.736;37.800;2023-08-07T05:52:17;29.98;63.86
78898;DHT22;70344;44.736;37.800;2023-08-07T05:53:27;29.98;63.42
78898;DHT22;70344;44.736;37.800;2023-08-07T05:54:31;29.99;63.47
78898;DHT22;70344;44.736;37.800;2023-08-07T05:55:48;30.04;63.39
78898;DHT22;70344;44.736;37.800;2023-08-07T05:56:52;30.12;62.92
78898;DHT22;70344;44.736;37.800;2023-08-07T05:57:54;30.16;63.44
78898;DHT22;70344;44.736;37.800;2023-08-07T05:59:02;30.19;63.61
78898;DHT22;70344;44.736;37.800;2023-08-07T06:00:07;30.24;64.25
78898;DHT22;70344;44.736;37.800;2023-08-07T06:01:17;30.24;64.63
78898;DHT22;70344;44.736;37.800;2023-08-07T06:02:22;30.26;64.46
78898;DHT22;70344;44.736;37.800;2023-08-07T06:03:27;30.27;64.07
78898;DHT22;70344;44.736;37.800;2023-08-07T06:04:35;30.27;63.52
78898;DHT22;70344;44.736;37.800;2023-08-07T06:05:45;30.31;63.39
78898;DHT22;70344;44.736;37.800;2023-08-07T06:06:55;30.40;63.23
78898;DHT22;70344;44.736;37.800;2023-08-07T06:07:57;30.44;63.70
78898;DHT22;70344;44.736;37.800;2023-08-07T06:08:59;30.50;63.65
78898;DHT22;70344;44.736;37.800;2023-08-07T06:10:05;30.53;63.61
78898;DHT22;70344;44.736;37.800;2023-08-07T06:11:17;30.56;63.27
78898;DHT22;70344;44.736;37.800;2023-08-07T06:12:21;30.56;63.19
78898;DHT22;70344;44.736;37.800;2023-08-07T06:13:26;30.61;63.51
78898;DHT22;70344;44.736;37.800;2023-08-07T06:14:30;30.60;62.84
78898;DHT22;70344;44.736;37.800;2023-08-07T06:15:32;30.63;62.57
78898;DHT22;70344;44.736;37.800;2023-08-07T06:16:41;30.64;63.77
78898;DHT22;70344;44.736;37.800;2023-08-07T06:17:55;30.57;64.46
78898;DHT22;70344;44.736;37.800;2023-08-07T06:18:58;30.50;64.73
78898;DHT22;70344;44.736;37.800;2023-08-07T06:20:07;30.53;65.12
78898;DHT22;70344;44.736;37.800;2023-08-07T06:21:14;30.56;65.22
78898;DHT22;70344;44.736;37.800;2023-08-07T06:22:18;30.56;64.41
78898;DHT22;70344;44.736;37.800;2023-08-07T06:23:25;30.56;64.92
78898;DHT22;70344;44.736;37.800;2023-08-07T06:24:30;30.54;64.29
78898;DHT22;70344;44.736;37.800;2023-08-07T06:25:34;30.60;63.26
78898;DHT22;70344;44.736;37.800;2023-08-07T06:26:43;30.63;63.27
78898;DHT22;70344;44.736;37.800;2023-08-07T06:27:45;30.67;63.13
78898;DHT22;70344;44.736;37.800;2023-08-07T06:28:49;30.71;63.03
78898;DHT22;70344;44.736;37.800;2023-08-07T06:29:51;30.74;62.44
78898;DHT22;70344;44.736;37.800;2023-08-07T06:31:04;30.79;61.10
78898;DHT22;70344;44.736;37.800;2023-08-07T06:32:06;30.72;62.41
78898;DHT22;70344;44.736;37.800;2023-08-07T06:33:09;30.74;63.16
78898;DHT22;70344;44.736;37.800;2023-08-07T06:34:10;30.78;63.68
78898;DHT22;70344;44.736;37.800;2023-08-07T06:35:26;30.72;64.21
78898;DHT22;70344;44.736;37.800;2023-08-07T06:36:27;30.74;64.04
78898;DHT22;70344;44.736;37.800;2023-08-07T06:37:30;30.75;64.36
78898;DHT22;70344;44.736;37.800;2023-08-07T06:38:35;30.76;64.08
78898;DHT22;70344;44.736;37.800;2023-08-07T06:39:37;30.78;64.01
78898;DHT22;70344;44.736;37.800;2023-08-07T06:40:41;30.79;63.71
78898;DHT22;70344;44.736;37.800;2023-08-07T06:41:51;30.86;63.36
78898;DHT22;70344;44.736;37.800;2023-08-07T06:42:56;30.85;63.55
78898;DHT22;70344;44.736;37.800;2023-08-07T06:44:01;30.86;63.26
78898;DHT22;70344;44.736;37.800;2023-08-07T06:45:03;30.82;63.76
78898;DHT22;70344;44.736;37.800;2023-08-07T06:46:07;30.91;63.60
78898;DHT22;70344;44.736;37.800;2023-08-07T06:47:09;30.88;63.92